Aviation Digital Data Service (ADDS)

Output produced by METARs form (0439 UTC 25 April 2017)
found at http://aviationweather.gov/adds/metars/
 
KINT 250116Z 2501/2524 03010G17KT 4SM -SHRA BR BKN007 OVC035 
     TEMPO 2501/2503 03013G22KT 6SM -RA SCT008 BKN040 
     FM250300 04012G22KT P6SM VCSH OVC006 WS020/05045KT 
     FM251000 04012G17KT 5SM -RA OVC006 
     FM251600 03008KT P6SM BKN012 OVC025